PWSweather.com
Personal Weather Stations
Station Observations
ITROMSHA6
HarstadNO 9407

HarstadNO 9407

Lat: 68.7814767, Lon: 16.5297091

Elevation: 145

Station Type: Davis Vantage Pro2

High Low Average
Temperature 55.9°F13.3°C 44.4°F6.9°C 50.9°F10.5°C
Dew Point 51.1°F10.6°C 38.1°F3.4°C 45.9°F7.7°C
Winds 8.0 mph 12.9 kmh Calm Calm 1.0 mph SSE1.6 kmh SSE
Wind Gusts 7.0 mph11.3 kmh -- 1.0 mph1.6 kmh
Humidity 96% 73% 83%
Pressure 30.08 in1018.6 mb 29.82 in1009.8 mb -
Precipitation 0.04 in1.0 mm - -
Hour Temp Dew Point Humidity Winds Wind Gusts Pressure Precip Precip Rate Daily Precip Total
12:00 AM 46.2°F7.9°C 38.1°F3.4°C 73% 4.0 mph WSW6.4 kmh WSW -- 30.08 in1018.6 mb 0.00 in0.0 mm 0.00 in0.0 mm 0.00 in0.0 mm
12:05 AM 46.0°F7.8°C 38.3°F3.5°C 74% 4.0 mph WSW6.4 kmh WSW 7.0 mph11.3 kmh 30.08 in1018.6 mb 0.00 in0.0 mm 0.00 in0.0 mm 0.00 in0.0 mm
12:10 AM 45.8°F7.7°C 38.5°F3.6°C 75% 5.0 mph WSW8.0 kmh WSW -- 30.08 in1018.6 mb 0.00 in0.0 mm 0.00 in0.0 mm 0.00 in0.0 mm
12:15 AM 45.7°F7.6°C 38.3°F3.5°C 75% 8.0 mph WSW12.9 kmh WSW -- 30.08 in1018.6 mb 0.00 in0.0 mm 0.00 in0.0 mm 0.00 in0.0 mm
12:20 AM 46.4°F8.0°C 38.7°F3.7°C 74% 5.0 mph WSW8.0 kmh WSW -- 30.08 in1018.6 mb 0.00 in0.0 mm 0.00 in0.0 mm 0.00 in0.0 mm
12:25 AM 46.2°F7.9°C 38.5°F3.6°C 74% 5.0 mph WSW8.0 kmh WSW -- 30.08 in1018.6 mb 0.00 in0.0 mm 0.00 in0.0 mm 0.00 in0.0 mm
12:30 AM 46.1°F7.8°C 38.5°F3.6°C 75% 5.0 mph WSW8.0 kmh WSW 6.0 mph9.7 kmh 30.08 in1018.6 mb 0.00 in0.0 mm 0.00 in0.0 mm 0.00 in0.0 mm
12:35 AM 46.1°F7.8°C 38.5°F3.6°C 75% 6.0 mph SW9.7 kmh SW -- 30.08 in1018.6 mb 0.00 in0.0 mm 0.00 in0.0 mm 0.00 in0.0 mm
12:40 AM 46.0°F7.8°C 38.5°F3.6°C 75% 3.0 mph WSW4.8 kmh WSW -- 30.08 in1018.6 mb 0.00 in0.0 mm 0.00 in0.0 mm 0.00 in0.0 mm
12:45 AM 45.8°F7.7°C 38.5°F3.6°C 75% 4.0 mph WSW6.4 kmh WSW -- 30.08 in1018.6 mb 0.00 in0.0 mm 0.00 in0.0 mm 0.00 in0.0 mm
12:50 AM 45.6°F7.6°C 38.5°F3.6°C 76% 3.0 mph WSW4.8 kmh WSW -- 30.08 in1018.6 mb 0.00 in0.0 mm 0.00 in0.0 mm 0.00 in0.0 mm
12:55 AM 45.2°F7.3°C 38.3°F3.5°C 77% 5.0 mph WSW8.0 kmh WSW 6.0 mph9.7 kmh 30.08 in1018.6 mb 0.00 in0.0 mm 0.00 in0.0 mm 0.00 in0.0 mm
01:00 AM 45.5°F7.5°C 38.7°F3.7°C 77% 4.0 mph W6.4 kmh W -- 30.08 in1018.6 mb 0.00 in0.0 mm 0.00 in0.0 mm 0.00 in0.0 mm
01:05 AM 45.8°F7.7°C 39.0°F3.9°C 77% 5.0 mph WSW8.0 kmh WSW -- 30.08 in1018.6 mb 0.00 in0.0 mm 0.00 in0.0 mm 0.00 in0.0 mm
01:10 AM 45.5°F7.5°C 39.0°F3.9°C 78% 5.0 mph WSW8.0 kmh WSW -- 30.08 in1018.6 mb 0.00 in0.0 mm 0.00 in0.0 mm 0.00 in0.0 mm
01:15 AM 45.8°F7.7°C 39.0°F3.9°C 77% 4.0 mph WSW6.4 kmh WSW -- 30.08 in1018.6 mb 0.00 in0.0 mm 0.00 in0.0 mm 0.00 in0.0 mm
01:20 AM 45.5°F7.5°C 39.0°F3.9°C 78% 4.0 mph SW6.4 kmh SW 6.0 mph9.7 kmh 30.08 in1018.6 mb 0.00 in0.0 mm 0.00 in0.0 mm 0.00 in0.0 mm
01:25 AM 45.9°F7.7°C 39.4°F4.1°C 78% 4.0 mph WSW6.4 kmh WSW -- 30.08 in1018.6 mb 0.00 in0.0 mm 0.00 in0.0 mm 0.00 in0.0 mm
01:30 AM 45.8°F7.7°C 39.4°F4.1°C 78% 3.0 mph WSW4.8 kmh WSW -- 30.08 in1018.6 mb 0.00 in0.0 mm 0.00 in0.0 mm 0.00 in0.0 mm
01:35 AM 45.7°F7.6°C 39.2°F4.0°C 78% 4.0 mph WSW6.4 kmh WSW -- 30.08 in1018.6 mb 0.00 in0.0 mm 0.00 in0.0 mm 0.00 in0.0 mm
01:40 AM 45.6°F7.6°C 39.2°F4.0°C 78% 5.0 mph WSW8.0 kmh WSW -- 30.08 in1018.6 mb 0.00 in0.0 mm 0.00 in0.0 mm 0.00 in0.0 mm
01:45 AM 45.6°F7.6°C 39.2°F4.0°C 78% 4.0 mph WSW6.4 kmh WSW 6.0 mph9.7 kmh 30.08 in1018.6 mb 0.00 in0.0 mm 0.00 in0.0 mm 0.00 in0.0 mm
01:50 AM 45.5°F7.5°C 39.0°F3.9°C 78% 4.0 mph WSW6.4 kmh WSW -- 30.08 in1018.6 mb 0.00 in0.0 mm 0.00 in0.0 mm 0.00 in0.0 mm
01:55 AM 45.7°F7.6°C 39.6°F4.2°C 79% 4.0 mph WSW6.4 kmh WSW -- 30.08 in1018.6 mb 0.00 in0.0 mm 0.00 in0.0 mm 0.00 in0.0 mm
02:00 AM 45.4°F7.4°C 38.8°F3.8°C 78% 5.0 mph WSW8.0 kmh WSW -- 30.08 in1018.6 mb 0.00 in0.0 mm 0.00 in0.0 mm 0.00 in0.0 mm
02:05 AM 45.3°F7.4°C 39.2°F4.0°C 79% 4.0 mph WSW6.4 kmh WSW -- 30.08 in1018.6 mb 0.00 in0.0 mm 0.00 in0.0 mm 0.00 in0.0 mm
02:10 AM 45.3°F7.4°C 39.2°F4.0°C 79% 8.0 mph WSW12.9 kmh WSW 7.0 mph11.3 kmh 30.08 in1018.6 mb 0.00 in0.0 mm 0.00 in0.0 mm 0.00 in0.0 mm
02:15 AM 45.2°F7.3°C 39.0°F3.9°C 79% 6.0 mph W9.7 kmh W -- 30.08 in1018.6 mb 0.00 in0.0 mm 0.00 in0.0 mm 0.00 in0.0 mm
02:20 AM 45.4°F7.4°C 38.8°F3.8°C 78% 6.0 mph W9.7 kmh W -- 30.07 in1018.3 mb 0.00 in0.0 mm 0.00 in0.0 mm 0.00 in0.0 mm
02:25 AM 45.4°F7.4°C 38.8°F3.8°C 78% 5.0 mph WSW8.0 kmh WSW -- 30.07 in1018.3 mb 0.00 in0.0 mm 0.00 in0.0 mm 0.00 in0.0 mm
02:30 AM 45.4°F7.4°C 38.8°F3.8°C 78% 4.0 mph SW6.4 kmh SW -- 30.07 in1018.3 mb 0.00 in0.0 mm 0.00 in0.0 mm 0.00 in0.0 mm
02:35 AM 45.3°F7.4°C 38.8°F3.8°C 78% 4.0 mph SW6.4 kmh SW 7.0 mph11.3 kmh 30.07 in1018.3 mb 0.00 in0.0 mm 0.00 in0.0 mm 0.00 in0.0 mm
02:40 AM 45.0°F7.2°C 38.8°F3.8°C 79% 6.0 mph WSW9.7 kmh WSW -- 30.07 in1018.3 mb 0.00 in0.0 mm 0.00 in0.0 mm 0.00 in0.0 mm
02:45 AM 45.2°F7.3°C 39.0°F3.9°C 79% 5.0 mph WSW8.0 kmh WSW -- 30.07 in1018.3 mb 0.00 in0.0 mm 0.00 in0.0 mm 0.00 in0.0 mm
02:50 AM 45.2°F7.3°C 39.0°F3.9°C 79% 6.0 mph WSW9.7 kmh WSW -- 30.07 in1018.3 mb 0.00 in0.0 mm 0.00 in0.0 mm 0.00 in0.0 mm
02:55 AM 45.5°F7.5°C 39.4°F4.1°C 79% 4.0 mph WSW6.4 kmh WSW -- 30.07 in1018.3 mb 0.00 in0.0 mm 0.00 in0.0 mm 0.00 in0.0 mm
03:00 AM 45.4°F7.4°C 39.2°F4.0°C 79% 6.0 mph WSW9.7 kmh WSW 7.0 mph11.3 kmh 30.07 in1018.3 mb 0.00 in0.0 mm 0.00 in0.0 mm 0.00 in0.0 mm
03:05 AM 45.0°F7.2°C 38.8°F3.8°C 79% 5.0 mph WSW8.0 kmh WSW -- 30.07 in1018.3 mb 0.00 in0.0 mm 0.00 in0.0 mm 0.00 in0.0 mm
03:10 AM 45.0°F7.2°C 39.2°F4.0°C 80% 4.0 mph WSW6.4 kmh WSW -- 30.07 in1018.3 mb 0.00 in0.0 mm 0.00 in0.0 mm 0.00 in0.0 mm
03:15 AM 44.9°F7.2°C 39.2°F4.0°C 80% 5.0 mph WSW8.0 kmh WSW -- 30.07 in1018.3 mb 0.00 in0.0 mm 0.00 in0.0 mm 0.00 in0.0 mm
03:20 AM 44.9°F7.2°C 39.2°F4.0°C 80% 4.0 mph WSW6.4 kmh WSW -- 30.07 in1018.3 mb 0.00 in0.0 mm 0.00 in0.0 mm 0.00 in0.0 mm
03:25 AM 45.0°F7.2°C 39.6°F4.2°C 81% 4.0 mph SW6.4 kmh SW 7.0 mph11.3 kmh 30.06 in1017.9 mb 0.00 in0.0 mm 0.00 in0.0 mm 0.00 in0.0 mm
03:30 AM 45.1°F7.3°C 39.7°F4.3°C 81% 4.0 mph WSW6.4 kmh WSW -- 30.06 in1017.9 mb 0.00 in0.0 mm 0.00 in0.0 mm 0.00 in0.0 mm
03:35 AM 45.2°F7.3°C 39.7°F4.3°C 81% 5.0 mph WSW8.0 kmh WSW -- 30.06 in1017.9 mb 0.00 in0.0 mm 0.00 in0.0 mm 0.00 in0.0 mm
03:40 AM 45.2°F7.3°C 39.7°F4.3°C 81% 2.0 mph WSW3.2 kmh WSW -- 30.06 in1017.9 mb 0.00 in0.0 mm 0.00 in0.0 mm 0.00 in0.0 mm
03:45 AM 45.1°F7.3°C 39.7°F4.3°C 81% 5.0 mph WSW8.0 kmh WSW -- 30.06 in1017.9 mb 0.00 in0.0 mm 0.00 in0.0 mm 0.00 in0.0 mm
03:50 AM 44.9°F7.2°C 39.7°F4.3°C 82% 4.0 mph WSW6.4 kmh WSW 6.0 mph9.7 kmh 30.06 in1017.9 mb 0.00 in0.0 mm 0.00 in0.0 mm 0.00 in0.0 mm
03:55 AM 45.0°F7.2°C 39.7°F4.3°C 82% 3.0 mph WSW4.8 kmh WSW -- 30.06 in1017.9 mb 0.00 in0.0 mm 0.00 in0.0 mm 0.00 in0.0 mm
04:00 AM 45.4°F7.4°C 39.9°F4.4°C 81% 6.0 mph WSW9.7 kmh WSW -- 30.06 in1017.9 mb 0.00 in0.0 mm 0.00 in0.0 mm 0.00 in0.0 mm
04:05 AM 45.3°F7.4°C 40.1°F4.5°C 82% 4.0 mph W6.4 kmh W -- 30.05 in1017.6 mb 0.00 in0.0 mm 0.00 in0.0 mm 0.00 in0.0 mm
04:10 AM 45.2°F7.3°C 39.9°F4.4°C 82% 4.0 mph WSW6.4 kmh WSW -- 30.05 in1017.6 mb 0.00 in0.0 mm 0.00 in0.0 mm 0.00 in0.0 mm
04:15 AM 45.4°F7.4°C 40.1°F4.5°C 82% 4.0 mph WSW6.4 kmh WSW 7.0 mph11.3 kmh 30.05 in1017.6 mb 0.00 in0.0 mm 0.00 in0.0 mm 0.00 in0.0 mm
04:20 AM 45.2°F7.3°C 39.7°F4.3°C 81% 4.0 mph WSW6.4 kmh WSW -- 30.05 in1017.6 mb 0.00 in0.0 mm 0.00 in0.0 mm 0.00 in0.0 mm
04:25 AM 45.0°F7.2°C 40.1°F4.5°C 83% 4.0 mph WSW6.4 kmh WSW -- 30.05 in1017.6 mb 0.00 in0.0 mm 0.00 in0.0 mm 0.00 in0.0 mm
04:30 AM 45.4°F7.4°C 40.5°F4.7°C 83% 4.0 mph WSW6.4 kmh WSW -- 30.05 in1017.6 mb 0.00 in0.0 mm 0.00 in0.0 mm 0.00 in0.0 mm
04:35 AM 45.4°F7.4°C 40.1°F4.5°C 82% 4.0 mph WSW6.4 kmh WSW -- 30.05 in1017.6 mb 0.00 in0.0 mm 0.00 in0.0 mm 0.00 in0.0 mm
04:40 AM 45.1°F7.3°C 40.3°F4.6°C 83% 4.0 mph WSW6.4 kmh WSW 5.0 mph8.0 kmh 30.04 in1017.3 mb 0.00 in0.0 mm 0.00 in0.0 mm 0.00 in0.0 mm
04:45 AM 45.0°F7.2°C 40.5°F4.7°C 84% 5.0 mph WSW8.0 kmh WSW -- 30.04 in1017.3 mb 0.00 in0.0 mm 0.00 in0.0 mm 0.00 in0.0 mm
04:50 AM 44.6°F7.0°C 40.1°F4.5°C 84% 6.0 mph WSW9.7 kmh WSW -- 30.04 in1017.3 mb 0.00 in0.0 mm 0.00 in0.0 mm 0.00 in0.0 mm
04:55 AM 44.9°F7.2°C 40.6°F4.8°C 85% 4.0 mph WSW6.4 kmh WSW -- 30.04 in1017.3 mb 0.00 in0.0 mm 0.00 in0.0 mm 0.00 in0.0 mm
05:00 AM 44.8°F7.1°C 40.3°F4.6°C 84% 4.0 mph SW6.4 kmh SW -- 30.04 in1017.3 mb 0.00 in0.0 mm 0.00 in0.0 mm 0.00 in0.0 mm
05:05 AM 44.9°F7.2°C 40.6°F4.8°C 85% 4.0 mph WSW6.4 kmh WSW 6.0 mph9.7 kmh 30.04 in1017.3 mb 0.00 in0.0 mm 0.00 in0.0 mm 0.00 in0.0 mm
05:10 AM 45.0°F7.2°C 40.5°F4.7°C 84% 3.0 mph WSW4.8 kmh WSW -- 30.04 in1017.3 mb 0.00 in0.0 mm 0.00 in0.0 mm 0.00 in0.0 mm
05:15 AM 44.4°F6.9°C 40.3°F4.6°C 85% 3.0 mph WSW4.8 kmh WSW -- 30.04 in1017.3 mb 0.00 in0.0 mm 0.00 in0.0 mm 0.00 in0.0 mm
05:20 AM 44.6°F7.0°C 40.6°F4.8°C 86% 4.0 mph WSW6.4 kmh WSW -- 30.04 in1017.3 mb 0.00 in0.0 mm 0.00 in0.0 mm 0.00 in0.0 mm
05:25 AM 44.7°F7.1°C 40.6°F4.8°C 85% 4.0 mph WSW6.4 kmh WSW -- 30.04 in1017.3 mb 0.00 in0.0 mm 0.00 in0.0 mm 0.00 in0.0 mm
05:30 AM 44.7°F7.1°C 40.8°F4.9°C 86% 4.0 mph WSW6.4 kmh WSW 5.0 mph8.0 kmh 30.04 in1017.3 mb 0.00 in0.0 mm 0.00 in0.0 mm 0.00 in0.0 mm
05:35 AM 45.0°F7.2°C 41.0°F5.0°C 86% 3.0 mph WSW4.8 kmh WSW -- 30.03 in1016.9 mb 0.00 in0.0 mm 0.00 in0.0 mm 0.00 in0.0 mm
05:40 AM 45.2°F7.3°C 40.8°F4.9°C 85% 5.0 mph WSW8.0 kmh WSW -- 30.03 in1016.9 mb 0.00 in0.0 mm 0.00 in0.0 mm 0.00 in0.0 mm
05:45 AM 46.3°F7.9°C 41.4°F5.2°C 83% 4.0 mph WSW6.4 kmh WSW -- 30.03 in1016.9 mb 0.00 in0.0 mm 0.00 in0.0 mm 0.00 in0.0 mm
05:50 AM 46.5°F8.1°C 41.4°F5.2°C 82% 2.0 mph W3.2 kmh W -- 30.03 in1016.9 mb 0.00 in0.0 mm 0.00 in0.0 mm 0.00 in0.0 mm
05:55 AM 46.3°F7.9°C 41.0°F5.0°C 82% 3.0 mph WSW4.8 kmh WSW 4.0 mph6.4 kmh 30.03 in1016.9 mb 0.00 in0.0 mm 0.00 in0.0 mm 0.00 in0.0 mm
06:00 AM 46.4°F8.0°C 41.9°F5.5°C 84% 1.0 mph WSW1.6 kmh WSW -- 30.03 in1016.9 mb 0.00 in0.0 mm 0.00 in0.0 mm 0.00 in0.0 mm
06:05 AM 47.2°F8.4°C 42.3°F5.7°C 83% 2.0 mph WSW3.2 kmh WSW -- 30.03 in1016.9 mb 0.00 in0.0 mm 0.00 in0.0 mm 0.00 in0.0 mm
06:10 AM 47.8°F8.8°C 42.6°F5.9°C 82% 1.0 mph WSW1.6 kmh WSW -- 30.03 in1016.9 mb 0.00 in0.0 mm 0.00 in0.0 mm 0.00 in0.0 mm
06:15 AM 48.1°F8.9°C 42.8°F6.0°C 82% Calm Calm -- 30.03 in1016.9 mb 0.00 in0.0 mm 0.00 in0.0 mm 0.00 in0.0 mm
06:20 AM 48.7°F9.3°C 43.5°F6.4°C 82% Calm Calm 2.0 mph3.2 kmh 30.02 in1016.6 mb 0.00 in0.0 mm 0.00 in0.0 mm 0.00 in0.0 mm
06:25 AM 49.7°F9.8°C 44.1°F6.7°C 81% Calm Calm -- 30.02 in1016.6 mb 0.00 in0.0 mm 0.00 in0.0 mm 0.00 in0.0 mm
06:30 AM 50.5°F10.3°C 45.0°F7.2°C 81% Calm Calm -- 30.02 in1016.6 mb 0.00 in0.0 mm 0.00 in0.0 mm 0.00 in0.0 mm
06:35 AM 51.1°F10.6°C 44.8°F7.1°C 79% Calm Calm -- 30.02 in1016.6 mb 0.00 in0.0 mm 0.00 in0.0 mm 0.00 in0.0 mm
06:40 AM 51.9°F11.1°C 45.0°F7.2°C 77% Calm Calm -- 30.02 in1016.6 mb 0.00 in0.0 mm 0.00 in0.0 mm 0.00 in0.0 mm
06:45 AM 52.4°F11.3°C 44.2°F6.8°C 74% Calm Calm 1.0 mph1.6 kmh 30.02 in1016.6 mb 0.00 in0.0 mm 0.00 in0.0 mm 0.00 in0.0 mm
06:50 AM 52.3°F11.3°C 43.9°F6.6°C 73% Calm Calm -- 30.02 in1016.6 mb 0.00 in0.0 mm 0.00 in0.0 mm 0.00 in0.0 mm
06:55 AM 51.8°F11.0°C 43.7°F6.5°C 74% 2.0 mph WSW3.2 kmh WSW -- 30.02 in1016.6 mb 0.00 in0.0 mm 0.00 in0.0 mm 0.00 in0.0 mm
07:00 AM 51.5°F10.8°C 43.5°F6.4°C 74% 1.0 mph S1.6 kmh S -- 30.02 in1016.6 mb 0.00 in0.0 mm 0.00 in0.0 mm 0.00 in0.0 mm
07:05 AM 51.5°F10.8°C 43.5°F6.4°C 74% Calm Calm -- 30.02 in1016.6 mb 0.00 in0.0 mm 0.00 in0.0 mm 0.00 in0.0 mm
07:10 AM 51.6°F10.9°C 43.9°F6.6°C 75% Calm Calm 4.0 mph6.4 kmh 30.02 in1016.6 mb 0.00 in0.0 mm 0.00 in0.0 mm 0.00 in0.0 mm
07:15 AM 51.6°F10.9°C 43.9°F6.6°C 75% Calm Calm -- 30.01 in1016.3 mb 0.00 in0.0 mm 0.00 in0.0 mm 0.00 in0.0 mm
07:20 AM 51.7°F10.9°C 43.5°F6.4°C 74% Calm Calm -- 30.01 in1016.3 mb 0.00 in0.0 mm 0.00 in0.0 mm 0.00 in0.0 mm
07:25 AM 51.9°F11.1°C 43.9°F6.6°C 74% 1.0 mph ESE1.6 kmh ESE -- 30.02 in1016.6 mb 0.00 in0.0 mm 0.00 in0.0 mm 0.00 in0.0 mm
07:30 AM 51.8°F11.0°C 43.7°F6.5°C 74% 1.0 mph ESE1.6 kmh ESE -- 30.02 in1016.6 mb 0.00 in0.0 mm 0.00 in0.0 mm 0.00 in0.0 mm
07:36 AM 51.7°F10.9°C 43.9°F6.6°C 75% Calm Calm 2.0 mph3.2 kmh 30.01 in1016.3 mb 0.00 in0.0 mm 0.00 in0.0 mm 0.00 in0.0 mm
07:40 AM 51.6°F10.9°C 43.9°F6.6°C 75% 1.0 mph E1.6 kmh E -- 30.01 in1016.3 mb 0.00 in0.0 mm 0.00 in0.0 mm 0.00 in0.0 mm
07:45 AM 51.6°F10.9°C 44.2°F6.8°C 76% Calm Calm -- 30.01 in1016.3 mb 0.00 in0.0 mm 0.00 in0.0 mm 0.00 in0.0 mm
07:50 AM 51.6°F10.9°C 45.0°F7.2°C 78% 1.0 mph NNW1.6 kmh NNW -- 30.02 in1016.6 mb 0.00 in0.0 mm 0.00 in0.0 mm 0.00 in0.0 mm
07:55 AM 51.4°F10.8°C 44.8°F7.1°C 78% Calm Calm -- 30.01 in1016.3 mb 0.00 in0.0 mm 0.00 in0.0 mm 0.00 in0.0 mm
08:00 AM 51.4°F10.8°C 44.8°F7.1°C 78% Calm Calm 1.0 mph1.6 kmh 30.01 in1016.3 mb 0.00 in0.0 mm 0.00 in0.0 mm 0.00 in0.0 mm
08:05 AM 51.4°F10.8°C 44.8°F7.1°C 78% 1.0 mph NNW1.6 kmh NNW -- 30.01 in1016.3 mb 0.00 in0.0 mm 0.00 in0.0 mm 0.00 in0.0 mm
08:10 AM 51.6°F10.9°C 45.3°F7.4°C 79% Calm Calm -- 30.01 in1016.3 mb 0.00 in0.0 mm 0.00 in0.0 mm 0.00 in0.0 mm
08:15 AM 51.7°F10.9°C 45.3°F7.4°C 79% Calm Calm -- 30.01 in1016.3 mb 0.00 in0.0 mm 0.00 in0.0 mm 0.00 in0.0 mm
08:20 AM 51.8°F11.0°C 45.9°F7.7°C 80% Calm Calm -- 30.01 in1016.3 mb 0.00 in0.0 mm 0.00 in0.0 mm 0.00 in0.0 mm
08:25 AM 51.9°F11.1°C 45.7°F7.6°C 79% Calm Calm -- 30.01 in1016.3 mb 0.00 in0.0 mm 0.00 in0.0 mm 0.00 in0.0 mm
08:30 AM 52.1°F11.2°C 45.9°F7.7°C 79% Calm Calm -- 30.01 in1016.3 mb 0.00 in0.0 mm 0.00 in0.0 mm 0.00 in0.0 mm
08:35 AM 52.3°F11.3°C 46.0°F7.8°C 79% 1.0 mph NNW1.6 kmh NNW -- 30.01 in1016.3 mb 0.00 in0.0 mm 0.00 in0.0 mm 0.00 in0.0 mm
08:40 AM 52.5°F11.4°C 46.2°F7.9°C 79% 1.0 mph N1.6 kmh N -- 30.01 in1016.3 mb 0.00 in0.0 mm 0.00 in0.0 mm 0.00 in0.0 mm
08:45 AM 52.4°F11.3°C 46.0°F7.8°C 79% 1.0 mph N1.6 kmh N -- 30.01 in1016.3 mb 0.00 in0.0 mm 0.00 in0.0 mm 0.00 in0.0 mm
08:50 AM 52.4°F11.3°C 46.0°F7.8°C 79% Calm Calm 3.0 mph4.8 kmh 30.01 in1016.3 mb 0.00 in0.0 mm 0.00 in0.0 mm 0.00 in0.0 mm
08:55 AM 52.5°F11.4°C 46.2°F7.9°C 79% Calm Calm -- 30.00 in1015.9 mb 0.00 in0.0 mm 0.00 in0.0 mm 0.00 in0.0 mm
09:00 AM 52.6°F11.4°C 46.6°F8.1°C 80% Calm Calm -- 30.01 in1016.3 mb 0.00 in0.0 mm 0.00 in0.0 mm 0.00 in0.0 mm
09:05 AM 52.7°F11.5°C 46.4°F8.0°C 79% Calm Calm -- 30.00 in1015.9 mb 0.00 in0.0 mm 0.00 in0.0 mm 0.00 in0.0 mm
09:10 AM 52.7°F11.5°C 46.4°F8.0°C 79% Calm Calm -- 30.00 in1015.9 mb 0.00 in0.0 mm 0.00 in0.0 mm 0.00 in0.0 mm
09:15 AM 52.7°F11.5°C 46.4°F8.0°C 79% Calm Calm 2.0 mph3.2 kmh 30.00 in1015.9 mb 0.00 in0.0 mm 0.00 in0.0 mm 0.00 in0.0 mm
09:20 AM 52.7°F11.5°C 46.0°F7.8°C 78% Calm Calm -- 30.00 in1015.9 mb 0.00 in0.0 mm 0.00 in0.0 mm 0.00 in0.0 mm
09:25 AM 52.8°F11.6°C 45.1°F7.3°C 75% 3.0 mph S4.8 kmh S -- 30.00 in1015.9 mb 0.00 in0.0 mm 0.00 in0.0 mm 0.00 in0.0 mm
09:30 AM 53.0°F11.7°C 45.3°F7.4°C 75% Calm Calm -- 30.00 in1015.9 mb 0.00 in0.0 mm 0.00 in0.0 mm 0.00 in0.0 mm
09:35 AM 53.0°F11.7°C 46.0°F7.8°C 77% Calm Calm -- 30.00 in1015.9 mb 0.00 in0.0 mm 0.00 in0.0 mm 0.00 in0.0 mm
09:40 AM 53.0°F11.7°C 45.7°F7.6°C 76% 1.0 mph S1.6 kmh S 4.0 mph6.4 kmh 30.00 in1015.9 mb 0.00 in0.0 mm 0.00 in0.0 mm 0.00 in0.0 mm
09:45 AM 53.1°F11.7°C 46.0°F7.8°C 77% Calm Calm -- 30.00 in1015.9 mb 0.00 in0.0 mm 0.00 in0.0 mm 0.00 in0.0 mm
09:50 AM 53.2°F11.8°C 46.2°F7.9°C 77% Calm Calm -- 29.99 in1015.6 mb 0.00 in0.0 mm 0.00 in0.0 mm 0.00 in0.0 mm
09:55 AM 53.2°F11.8°C 46.2°F7.9°C 77% Calm Calm -- 29.99 in1015.6 mb 0.00 in0.0 mm 0.00 in0.0 mm 0.00 in0.0 mm
10:00 AM 53.2°F11.8°C 46.2°F7.9°C 77% 1.0 mph NW1.6 kmh NW -- 29.99 in1015.6 mb 0.00 in0.0 mm 0.00 in0.0 mm 0.00 in0.0 mm
10:05 AM 53.4°F11.9°C 46.8°F8.2°C 78% 2.0 mph N3.2 kmh N 3.0 mph4.8 kmh 29.99 in1015.6 mb 0.00 in0.0 mm 0.00 in0.0 mm 0.00 in0.0 mm
10:10 AM 53.3°F11.8°C 46.2°F7.9°C 77% 2.0 mph N3.2 kmh N -- 29.99 in1015.6 mb 0.00 in0.0 mm 0.00 in0.0 mm 0.00 in0.0 mm
10:15 AM 53.4°F11.9°C 46.4°F8.0°C 77% 2.0 mph N3.2 kmh N -- 29.99 in1015.6 mb 0.00 in0.0 mm 0.00 in0.0 mm 0.00 in0.0 mm
10:20 AM 53.3°F11.8°C 46.2°F7.9°C 77% Calm Calm -- 29.99 in1015.6 mb 0.00 in0.0 mm 0.00 in0.0 mm 0.00 in0.0 mm
10:25 AM 53.4°F11.9°C 46.4°F8.0°C 77% 2.0 mph WNW3.2 kmh WNW -- 29.99 in1015.6 mb 0.00 in0.0 mm 0.00 in0.0 mm 0.00 in0.0 mm
10:30 AM 53.2°F11.8°C 46.2°F7.9°C 77% 2.0 mph WSW3.2 kmh WSW 6.0 mph9.7 kmh 29.99 in1015.6 mb 0.00 in0.0 mm 0.00 in0.0 mm 0.00 in0.0 mm
10:35 AM 53.1°F11.7°C 46.4°F8.0°C 78% 1.0 mph WSW1.6 kmh WSW -- 29.98 in1015.2 mb 0.00 in0.0 mm 0.00 in0.0 mm 0.00 in0.0 mm
10:40 AM 53.0°F11.7°C 46.4°F8.0°C 78% Calm Calm -- 29.99 in1015.6 mb 0.00 in0.0 mm 0.00 in0.0 mm 0.00 in0.0 mm
10:45 AM 53.0°F11.7°C 46.4°F8.0°C 78% Calm Calm -- 29.98 in1015.2 mb 0.00 in0.0 mm 0.00 in0.0 mm 0.00 in0.0 mm
10:50 AM 53.0°F11.7°C 46.4°F8.0°C 78% 3.0 mph WSW4.8 kmh WSW -- 29.98 in1015.2 mb 0.00 in0.0 mm 0.00 in0.0 mm 0.00 in0.0 mm
10:55 AM 52.8°F11.6°C 45.9°F7.7°C 77% 1.0 mph SW1.6 kmh SW 5.0 mph8.0 kmh 29.98 in1015.2 mb 0.00 in0.0 mm 0.00 in0.0 mm 0.00 in0.0 mm
11:00 AM 52.8°F11.6°C 45.9°F7.7°C 77% Calm Calm -- 29.98 in1015.2 mb 0.00 in0.0 mm 0.00 in0.0 mm 0.00 in0.0 mm
11:05 AM 53.0°F11.7°C 46.0°F7.8°C 77% 3.0 mph WSW4.8 kmh WSW -- 29.98 in1015.2 mb 0.00 in0.0 mm 0.00 in0.0 mm 0.00 in0.0 mm
11:10 AM 53.3°F11.8°C 46.2°F7.9°C 77% 2.0 mph WSW3.2 kmh WSW -- 29.98 in1015.2 mb 0.00 in0.0 mm 0.00 in0.0 mm 0.00 in0.0 mm
11:15 AM 53.4°F11.9°C 46.0°F7.8°C 76% 1.0 mph WSW1.6 kmh WSW -- 29.98 in1015.2 mb 0.00 in0.0 mm 0.00 in0.0 mm 0.00 in0.0 mm
11:20 AM 53.6°F12.0°C 46.2°F7.9°C 76% Calm Calm 3.0 mph4.8 kmh 29.98 in1015.2 mb 0.00 in0.0 mm 0.00 in0.0 mm 0.00 in0.0 mm
11:25 AM 53.9°F12.2°C 46.6°F8.1°C 76% 1.0 mph S1.6 kmh S -- 29.98 in1015.2 mb 0.00 in0.0 mm 0.00 in0.0 mm 0.00 in0.0 mm
11:30 AM 54.1°F12.3°C 46.8°F8.2°C 76% 2.0 mph ENE3.2 kmh ENE -- 29.98 in1015.2 mb 0.00 in0.0 mm 0.00 in0.0 mm 0.00 in0.0 mm
11:35 AM 54.1°F12.3°C 46.0°F7.8°C 74% 1.0 mph ENE1.6 kmh ENE -- 29.98 in1015.2 mb 0.00 in0.0 mm 0.00 in0.0 mm 0.00 in0.0 mm
11:40 AM 54.3°F12.4°C 46.2°F7.9°C 74% Calm Calm -- 29.97 in1014.9 mb 0.00 in0.0 mm 0.00 in0.0 mm 0.00 in0.0 mm
11:45 AM 54.5°F12.5°C 46.8°F8.2°C 75% 2.0 mph ENE3.2 kmh ENE 3.0 mph4.8 kmh 29.97 in1014.9 mb 0.00 in0.0 mm 0.00 in0.0 mm 0.00 in0.0 mm
12:05 PM 54.6°F12.6°C 46.6°F8.1°C 74% Calm Calm -- 29.97 in1014.9 mb 0.00 in0.0 mm 0.00 in0.0 mm 0.00 in0.0 mm
12:10 PM 54.7°F12.6°C 46.6°F8.1°C 74% 1.0 mph ENE1.6 kmh ENE 2.0 mph3.2 kmh 29.97 in1014.9 mb 0.00 in0.0 mm 0.00 in0.0 mm 0.00 in0.0 mm
12:15 PM 54.6°F12.6°C 46.6°F8.1°C 74% 3.0 mph ENE4.8 kmh ENE -- 29.97 in1014.9 mb 0.00 in0.0 mm 0.00 in0.0 mm 0.00 in0.0 mm
12:20 PM 54.4°F12.4°C 46.2°F7.9°C 74% Calm Calm -- 29.97 in1014.9 mb 0.00 in0.0 mm 0.00 in0.0 mm 0.00 in0.0 mm
12:25 PM 54.5°F12.5°C 46.4°F8.0°C 74% Calm Calm -- 29.97 in1014.9 mb 0.00 in0.0 mm 0.00 in0.0 mm 0.00 in0.0 mm
12:30 PM 54.6°F12.6°C 46.9°F8.3°C 75% Calm Calm -- 29.97 in1014.9 mb 0.00 in0.0 mm 0.00 in0.0 mm 0.00 in0.0 mm
12:35 PM 54.6°F12.6°C 47.3°F8.5°C 76% Calm Calm -- 29.97 in1014.9 mb 0.00 in0.0 mm 0.00 in0.0 mm 0.00 in0.0 mm
12:40 PM 54.6°F12.6°C 47.3°F8.5°C 76% Calm Calm -- 29.97 in1014.9 mb 0.00 in0.0 mm 0.00 in0.0 mm 0.00 in0.0 mm
12:45 PM 54.5°F12.5°C 46.8°F8.2°C 75% Calm Calm -- 29.97 in1014.9 mb 0.00 in0.0 mm 0.00 in0.0 mm 0.00 in0.0 mm
12:50 PM 54.6°F12.6°C 47.3°F8.5°C 76% Calm Calm -- 29.97 in1014.9 mb 0.00 in0.0 mm 0.00 in0.0 mm 0.00 in0.0 mm
12:55 PM 54.6°F12.6°C 47.7°F8.7°C 77% Calm Calm -- 29.97 in1014.9 mb 0.00 in0.0 mm 0.00 in0.0 mm 0.00 in0.0 mm
01:00 PM 54.6°F12.6°C 47.7°F8.7°C 77% Calm Calm -- 29.96 in1014.6 mb 0.00 in0.0 mm 0.00 in0.0 mm 0.00 in0.0 mm
01:05 PM 54.6°F12.6°C 47.3°F8.5°C 76% Calm Calm -- 29.96 in1014.6 mb 0.00 in0.0 mm 0.00 in0.0 mm 0.00 in0.0 mm
01:10 PM 54.9°F12.7°C 47.5°F8.6°C 76% Calm Calm -- 29.96 in1014.6 mb 0.00 in0.0 mm 0.00 in0.0 mm 0.00 in0.0 mm
01:15 PM 55.2°F12.9°C 48.2°F9.0°C 77% Calm Calm -- 29.96 in1014.6 mb 0.00 in0.0 mm 0.00 in0.0 mm 0.00 in0.0 mm
01:20 PM 55.1°F12.8°C 47.7°F8.7°C 76% Calm Calm -- 29.95 in1014.2 mb 0.00 in0.0 mm 0.00 in0.0 mm 0.00 in0.0 mm
01:25 PM 55.1°F12.8°C 47.3°F8.5°C 75% 1.0 mph ENE1.6 kmh ENE 2.0 mph3.2 kmh 29.96 in1014.6 mb 0.00 in0.0 mm 0.00 in0.0 mm 0.00 in0.0 mm
01:30 PM 55.1°F12.8°C 47.3°F8.5°C 75% Calm Calm -- 29.96 in1014.6 mb 0.00 in0.0 mm 0.00 in0.0 mm 0.00 in0.0 mm
01:35 PM 55.2°F12.9°C 47.1°F8.4°C 74% Calm Calm -- 29.95 in1014.2 mb 0.00 in0.0 mm 0.00 in0.0 mm 0.00 in0.0 mm
01:40 PM 55.5°F13.1°C 47.5°F8.6°C 74% Calm Calm -- 29.95 in1014.2 mb 0.00 in0.0 mm 0.00 in0.0 mm 0.00 in0.0 mm
01:45 PM 55.5°F13.1°C 47.5°F8.6°C 74% Calm Calm -- 29.95 in1014.2 mb 0.00 in0.0 mm 0.00 in0.0 mm 0.00 in0.0 mm
01:50 PM 55.8°F13.2°C 48.0°F8.9°C 75% 1.0 mph ENE1.6 kmh ENE 2.0 mph3.2 kmh 29.95 in1014.2 mb 0.00 in0.0 mm 0.00 in0.0 mm 0.00 in0.0 mm
01:55 PM 55.8°F13.2°C 47.7°F8.7°C 74% Calm Calm -- 29.95 in1014.2 mb 0.00 in0.0 mm 0.00 in0.0 mm 0.00 in0.0 mm
02:00 PM 55.9°F13.3°C 47.8°F8.8°C 74% Calm Calm -- 29.94 in1013.9 mb 0.00 in0.0 mm 0.00 in0.0 mm 0.00 in0.0 mm
02:05 PM 55.9°F13.3°C 47.8°F8.8°C 74% Calm Calm -- 29.95 in1014.2 mb 0.00 in0.0 mm 0.00 in0.0 mm 0.00 in0.0 mm
02:10 PM 55.7°F13.2°C 47.7°F8.7°C 74% 1.0 mph ENE1.6 kmh ENE -- 29.94 in1013.9 mb 0.00 in0.0 mm 0.00 in0.0 mm 0.00 in0.0 mm
02:15 PM 55.7°F13.2°C 47.7°F8.7°C 74% Calm Calm 3.0 mph4.8 kmh 29.94 in1013.9 mb 0.00 in0.0 mm 0.00 in0.0 mm 0.00 in0.0 mm
02:20 PM 55.7°F13.2°C 47.7°F8.7°C 74% Calm Calm -- 29.94 in1013.9 mb 0.00 in0.0 mm 0.00 in0.0 mm 0.00 in0.0 mm
02:25 PM 55.9°F13.3°C 47.8°F8.8°C 74% 1.0 mph ENE1.6 kmh ENE -- 29.94 in1013.9 mb 0.00 in0.0 mm 0.00 in0.0 mm 0.00 in0.0 mm
02:30 PM 55.8°F13.2°C 47.7°F8.7°C 74% Calm Calm -- 29.94 in1013.9 mb 0.00 in0.0 mm 0.00 in0.0 mm 0.00 in0.0 mm
02:35 PM 55.8°F13.2°C 47.7°F8.7°C 74% Calm Calm -- 29.94 in1013.9 mb 0.00 in0.0 mm 0.00 in0.0 mm 0.00 in0.0 mm
02:40 PM 55.9°F13.3°C 48.2°F9.0°C 75% Calm Calm 1.0 mph1.6 kmh 29.94 in1013.9 mb 0.00 in0.0 mm 0.00 in0.0 mm 0.00 in0.0 mm
02:45 PM 55.7°F13.2°C 48.0°F8.9°C 75% Calm Calm -- 29.94 in1013.9 mb 0.00 in0.0 mm 0.00 in0.0 mm 0.00 in0.0 mm
02:50 PM 55.7°F13.2°C 48.0°F8.9°C 75% Calm Calm -- 29.93 in1013.5 mb 0.00 in0.0 mm 0.00 in0.0 mm 0.00 in0.0 mm
02:55 PM 55.8°F13.2°C 48.7°F9.3°C 77% Calm Calm -- 29.94 in1013.9 mb 0.00 in0.0 mm 0.00 in0.0 mm 0.00 in0.0 mm
03:00 PM 55.7°F13.2°C 48.9°F9.4°C 78% Calm Calm -- 29.93 in1013.5 mb 0.00 in0.0 mm 0.00 in0.0 mm 0.00 in0.0 mm
03:05 PM 55.3°F12.9°C 48.6°F9.2°C 78% Calm Calm 3.0 mph4.8 kmh 29.93 in1013.5 mb 0.00 in0.0 mm 0.00 in0.0 mm 0.00 in0.0 mm
03:10 PM 54.9°F12.7°C 48.6°F9.2°C 79% Calm Calm -- 29.93 in1013.5 mb 0.00 in0.0 mm 0.00 in0.0 mm 0.00 in0.0 mm
03:15 PM 54.8°F12.7°C 48.7°F9.3°C 80% 1.0 mph ENE1.6 kmh ENE -- 29.93 in1013.5 mb 0.00 in0.0 mm 0.00 in0.0 mm 0.00 in0.0 mm
03:20 PM 54.6°F12.6°C 48.9°F9.4°C 81% 1.0 mph ENE1.6 kmh ENE -- 29.93 in1013.5 mb 0.00 in0.0 mm 0.00 in0.0 mm 0.00 in0.0 mm
03:25 PM 54.3°F12.4°C 48.6°F9.2°C 81% Calm Calm -- 29.93 in1013.5 mb 0.00 in0.0 mm 0.00 in0.0 mm 0.00 in0.0 mm
03:30 PM 54.2°F12.3°C 48.7°F9.3°C 82% Calm Calm 2.0 mph3.2 kmh 29.93 in1013.5 mb 0.00 in0.0 mm 0.00 in0.0 mm 0.00 in0.0 mm
03:35 PM 54.1°F12.3°C 48.7°F9.3°C 82% Calm Calm -- 29.92 in1013.2 mb 0.00 in0.0 mm 0.00 in0.0 mm 0.00 in0.0 mm
03:40 PM 54.0°F12.2°C 48.6°F9.2°C 82% Calm Calm -- 29.92 in1013.2 mb 0.00 in0.0 mm 0.00 in0.0 mm 0.00 in0.0 mm
03:45 PM 54.0°F12.2°C 48.9°F9.4°C 83% Calm Calm -- 29.92 in1013.2 mb 0.00 in0.0 mm 0.00 in0.0 mm 0.00 in0.0 mm
03:50 PM 54.0°F12.2°C 49.3°F9.6°C 84% Calm Calm -- 29.92 in1013.2 mb 0.00 in0.0 mm 0.00 in0.0 mm 0.00 in0.0 mm
03:55 PM 54.0°F12.2°C 49.3°F9.6°C 84% Calm Calm 1.0 mph1.6 kmh 29.92 in1013.2 mb 0.00 in0.0 mm 0.00 in0.0 mm 0.00 in0.0 mm
04:00 PM 53.9°F12.2°C 49.3°F9.6°C 84% Calm Calm -- 29.92 in1013.2 mb 0.00 in0.0 mm 0.00 in0.0 mm 0.00 in0.0 mm
04:05 PM 53.9°F12.2°C 49.6°F9.8°C 85% Calm Calm -- 29.92 in1013.2 mb 0.00 in0.0 mm 0.00 in0.0 mm 0.00 in0.0 mm
04:10 PM 53.9°F12.2°C 49.8°F9.9°C 86% Calm Calm -- 29.91 in1012.9 mb 0.00 in0.0 mm 0.00 in0.0 mm 0.00 in0.0 mm
04:15 PM 53.8°F12.1°C 49.6°F9.8°C 86% 3.0 mph ENE4.8 kmh ENE -- 29.92 in1013.2 mb 0.00 in0.0 mm 0.00 in0.0 mm 0.00 in0.0 mm
04:20 PM 53.6°F12.0°C 49.5°F9.7°C 86% Calm Calm 4.0 mph6.4 kmh 29.91 in1012.9 mb 0.00 in0.0 mm 0.00 in0.0 mm 0.00 in0.0 mm
04:25 PM 53.5°F11.9°C 49.3°F9.6°C 86% Calm Calm -- 29.91 in1012.9 mb 0.00 in0.0 mm 0.00 in0.0 mm 0.00 in0.0 mm
04:30 PM 53.5°F11.9°C 49.3°F9.6°C 86% Calm Calm -- 29.92 in1013.2 mb 0.00 in0.0 mm 0.00 in0.0 mm 0.00 in0.0 mm
04:35 PM 53.5°F11.9°C 49.6°F9.8°C 87% 1.0 mph ENE1.6 kmh ENE -- 29.91 in1012.9 mb 0.00 in0.0 mm 0.00 in0.0 mm 0.00 in0.0 mm
04:40 PM 53.3°F11.8°C 49.5°F9.7°C 87% Calm Calm -- 29.91 in1012.9 mb 0.00 in0.0 mm 0.00 in0.0 mm 0.00 in0.0 mm
04:45 PM 53.3°F11.8°C 49.5°F9.7°C 87% Calm Calm 2.0 mph3.2 kmh 29.91 in1012.9 mb 0.00 in0.0 mm 0.00 in0.0 mm 0.00 in0.0 mm
04:50 PM 53.4°F11.9°C 50.0°F10.0°C 88% Calm Calm -- 29.91 in1012.9 mb 0.00 in0.0 mm 0.00 in0.0 mm 0.00 in0.0 mm
04:55 PM 53.4°F11.9°C 50.0°F10.0°C 88% Calm Calm -- 29.91 in1012.9 mb 0.01 in0.3 mm 0.12 in3.0 mm 0.01 in0.3 mm
05:00 PM 53.3°F11.8°C 50.0°F10.0°C 89% Calm Calm -- 29.91 in1012.9 mb 0.01 in0.3 mm 0.00 in0.0 mm 0.01 in0.3 mm
05:05 PM 53.3°F11.8°C 50.4°F10.2°C 90% 1.0 mph ENE1.6 kmh ENE -- 29.91 in1012.9 mb 0.02 in0.5 mm 0.12 in3.0 mm 0.02 in0.5 mm
05:10 PM 53.1°F11.7°C 50.2°F10.1°C 90% Calm Calm 2.0 mph3.2 kmh 29.91 in1012.9 mb 0.02 in0.5 mm 0.00 in0.0 mm 0.02 in0.5 mm
05:15 PM 53.1°F11.7°C 50.5°F10.3°C 91% Calm Calm -- 29.90 in1012.5 mb 0.02 in0.5 mm 0.00 in0.0 mm 0.02 in0.5 mm
05:20 PM 53.1°F11.7°C 50.5°F10.3°C 91% Calm Calm -- 29.90 in1012.5 mb 0.02 in0.5 mm 0.00 in0.0 mm 0.02 in0.5 mm
05:25 PM 53.0°F11.7°C 50.5°F10.3°C 91% Calm Calm -- 29.90 in1012.5 mb 0.02 in0.5 mm 0.00 in0.0 mm 0.02 in0.5 mm
05:30 PM 52.9°F11.6°C 50.4°F10.2°C 91% 1.0 mph ENE1.6 kmh ENE -- 29.90 in1012.5 mb 0.02 in0.5 mm 0.00 in0.0 mm 0.02 in0.5 mm
05:35 PM 52.8°F11.6°C 50.5°F10.3°C 92% Calm Calm 1.0 mph1.6 kmh 29.90 in1012.5 mb 0.02 in0.5 mm 0.00 in0.0 mm 0.02 in0.5 mm
05:40 PM 52.8°F11.6°C 50.5°F10.3°C 92% Calm Calm -- 29.90 in1012.5 mb 0.02 in0.5 mm 0.00 in0.0 mm 0.02 in0.5 mm
05:45 PM 52.6°F11.4°C 50.2°F10.1°C 92% Calm Calm -- 29.90 in1012.5 mb 0.02 in0.5 mm 0.00 in0.0 mm 0.02 in0.5 mm
05:50 PM 52.6°F11.4°C 50.2°F10.1°C 92% Calm Calm -- 29.89 in1012.2 mb 0.02 in0.5 mm 0.00 in0.0 mm 0.02 in0.5 mm
05:55 PM 52.5°F11.4°C 50.2°F10.1°C 92% 1.0 mph ENE1.6 kmh ENE -- 29.89 in1012.2 mb 0.01 in0.3 mm 0.00 in0.0 mm 0.02 in0.5 mm
06:00 PM 52.4°F11.3°C 50.4°F10.2°C 93% Calm Calm 2.0 mph3.2 kmh 29.89 in1012.2 mb 0.01 in0.3 mm 0.00 in0.0 mm 0.02 in0.5 mm
06:05 PM 52.4°F11.3°C 50.4°F10.2°C 93% Calm Calm -- 29.89 in1012.2 mb 0.00 in0.0 mm 0.00 in0.0 mm 0.02 in0.5 mm
06:10 PM 52.4°F11.3°C 50.4°F10.2°C 93% Calm Calm -- 29.89 in1012.2 mb 0.00 in0.0 mm 0.00 in0.0 mm 0.02 in0.5 mm
06:15 PM 52.4°F11.3°C 50.4°F10.2°C 93% Calm Calm -- 29.89 in1012.2 mb 0.00 in0.0 mm 0.00 in0.0 mm 0.02 in0.5 mm
06:20 PM 52.4°F11.3°C 50.4°F10.2°C 93% Calm Calm -- 29.89 in1012.2 mb 0.00 in0.0 mm 0.00 in0.0 mm 0.02 in0.5 mm
06:25 PM 52.3°F11.3°C 50.4°F10.2°C 93% Calm Calm 1.0 mph1.6 kmh 29.88 in1011.9 mb 0.00 in0.0 mm 0.00 in0.0 mm 0.02 in0.5 mm
06:30 PM 52.2°F11.2°C 50.2°F10.1°C 93% Calm Calm -- 29.88 in1011.9 mb 0.00 in0.0 mm 0.00 in0.0 mm 0.02 in0.5 mm
06:35 PM 52.2°F11.2°C 50.2°F10.1°C 93% Calm Calm -- 29.88 in1011.9 mb 0.00 in0.0 mm 0.00 in0.0 mm 0.02 in0.5 mm
06:40 PM 52.1°F11.2°C 50.2°F10.1°C 93% 1.0 mph ENE1.6 kmh ENE -- 29.88 in1011.9 mb 0.00 in0.0 mm 0.00 in0.0 mm 0.02 in0.5 mm
06:45 PM 52.2°F11.2°C 50.5°F10.3°C 94% Calm Calm -- 29.88 in1011.9 mb 0.00 in0.0 mm 0.00 in0.0 mm 0.02 in0.5 mm
06:50 PM 52.1°F11.2°C 50.5°F10.3°C 94% Calm Calm 1.0 mph1.6 kmh 29.87 in1011.5 mb 0.00 in0.0 mm 0.00 in0.0 mm 0.02 in0.5 mm
06:55 PM 52.1°F11.2°C 50.5°F10.3°C 94% Calm Calm -- 29.87 in1011.5 mb 0.00 in0.0 mm 0.00 in0.0 mm 0.02 in0.5 mm
07:00 PM 52.2°F11.2°C 50.5°F10.3°C 94% Calm Calm -- 29.87 in1011.5 mb 0.00 in0.0 mm 0.00 in0.0 mm 0.02 in0.5 mm
07:05 PM 52.1°F11.2°C 50.5°F10.3°C 94% Calm Calm -- 29.87 in1011.5 mb 0.00 in0.0 mm 0.00 in0.0 mm 0.02 in0.5 mm
07:10 PM 52.1°F11.2°C 50.5°F10.3°C 94% Calm Calm -- 29.87 in1011.5 mb 0.00 in0.0 mm 0.00 in0.0 mm 0.02 in0.5 mm
07:15 PM 52.0°F11.1°C 50.4°F10.2°C 94% 1.0 mph ENE1.6 kmh ENE 2.0 mph3.2 kmh 29.87 in1011.5 mb 0.00 in0.0 mm 0.00 in0.0 mm 0.02 in0.5 mm
07:20 PM 52.1°F11.2°C 50.5°F10.3°C 94% Calm Calm -- 29.87 in1011.5 mb 0.00 in0.0 mm 0.00 in0.0 mm 0.02 in0.5 mm
07:25 PM 52.1°F11.2°C 50.5°F10.3°C 94% Calm Calm -- 29.87 in1011.5 mb 0.00 in0.0 mm 0.00 in0.0 mm 0.02 in0.5 mm
07:30 PM 52.0°F11.1°C 50.4°F10.2°C 94% Calm Calm -- 29.87 in1011.5 mb 0.00 in0.0 mm 0.00 in0.0 mm 0.02 in0.5 mm
07:35 PM 52.1°F11.2°C 50.5°F10.3°C 94% Calm Calm -- 29.87 in1011.5 mb 0.00 in0.0 mm 0.00 in0.0 mm 0.02 in0.5 mm
07:40 PM 51.9°F11.1°C 50.4°F10.2°C 94% 1.0 mph ENE1.6 kmh ENE 2.0 mph3.2 kmh 29.87 in1011.5 mb 0.00 in0.0 mm 0.00 in0.0 mm 0.02 in0.5 mm
07:45 PM 52.0°F11.1°C 50.4°F10.2°C 94% 1.0 mph ENE1.6 kmh ENE -- 29.87 in1011.5 mb 0.01 in0.3 mm 0.12 in3.0 mm 0.02 in0.5 mm
07:50 PM 52.0°F11.1°C 50.4°F10.2°C 94% Calm Calm -- 29.86 in1011.2 mb 0.01 in0.3 mm 0.00 in0.0 mm 0.02 in0.5 mm
07:55 PM 52.1°F11.2°C 50.7°F10.4°C 95% Calm Calm -- 29.86 in1011.2 mb 0.01 in0.3 mm 0.00 in0.0 mm 0.02 in0.5 mm
08:00 PM 52.0°F11.1°C 50.4°F10.2°C 94% Calm Calm -- 29.86 in1011.2 mb 0.01 in0.3 mm 0.00 in0.0 mm 0.02 in0.5 mm
08:05 PM 52.0°F11.1°C 50.5°F10.3°C 95% 1.0 mph ENE1.6 kmh ENE 2.0 mph3.2 kmh 29.86 in1011.2 mb 0.01 in0.3 mm 0.00 in0.0 mm 0.02 in0.5 mm
08:10 PM 52.1°F11.2°C 50.7°F10.4°C 95% 2.0 mph W3.2 kmh W -- 29.86 in1011.2 mb 0.01 in0.3 mm 0.00 in0.0 mm 0.02 in0.5 mm
08:15 PM 52.2°F11.2°C 50.7°F10.4°C 95% 1.0 mph SW1.6 kmh SW -- 29.86 in1011.2 mb 0.01 in0.3 mm 0.00 in0.0 mm 0.02 in0.5 mm
08:20 PM 52.4°F11.3°C 50.9°F10.5°C 95% 2.0 mph SW3.2 kmh SW -- 29.86 in1011.2 mb 0.01 in0.3 mm 0.00 in0.0 mm 0.02 in0.5 mm
08:25 PM 52.6°F11.4°C 51.1°F10.6°C 95% Calm Calm -- 29.86 in1011.2 mb 0.01 in0.3 mm 0.00 in0.0 mm 0.02 in0.5 mm
08:30 PM 52.5°F11.4°C 50.9°F10.5°C 94% 1.0 mph E1.6 kmh E 4.0 mph6.4 kmh 29.86 in1011.2 mb 0.01 in0.3 mm 0.00 in0.0 mm 0.02 in0.5 mm
08:35 PM 52.3°F11.3°C 50.7°F10.4°C 94% Calm Calm -- 29.86 in1011.2 mb 0.01 in0.3 mm 0.00 in0.0 mm 0.02 in0.5 mm
08:40 PM 52.2°F11.2°C 50.5°F10.3°C 94% 1.0 mph NE1.6 kmh NE -- 29.86 in1011.2 mb 0.01 in0.3 mm 0.00 in0.0 mm 0.02 in0.5 mm
08:45 PM 52.1°F11.2°C 50.7°F10.4°C 95% Calm Calm -- 29.85 in1010.8 mb 0.00 in0.0 mm 0.00 in0.0 mm 0.02 in0.5 mm
08:50 PM 52.1°F11.2°C 50.7°F10.4°C 95% Calm Calm -- 29.85 in1010.8 mb 0.00 in0.0 mm 0.00 in0.0 mm 0.02 in0.5 mm
08:55 PM 52.1°F11.2°C 50.7°F10.4°C 95% Calm Calm -- 29.85 in1010.8 mb 0.00 in0.0 mm 0.00 in0.0 mm 0.02 in0.5 mm
09:00 PM 52.2°F11.2°C 50.7°F10.4°C 95% Calm Calm -- 29.85 in1010.8 mb 0.00 in0.0 mm 0.00 in0.0 mm 0.02 in0.5 mm
09:05 PM 52.1°F11.2°C 50.7°F10.4°C 95% Calm Calm -- 29.85 in1010.8 mb 0.00 in0.0 mm 0.00 in0.0 mm 0.02 in0.5 mm
09:10 PM 52.2°F11.2°C 50.7°F10.4°C 95% Calm Calm -- 29.84 in1010.5 mb 0.00 in0.0 mm 0.00 in0.0 mm 0.02 in0.5 mm
09:15 PM 52.2°F11.2°C 50.7°F10.4°C 95% Calm Calm -- 29.84 in1010.5 mb 0.00 in0.0 mm 0.00 in0.0 mm 0.02 in0.5 mm
09:20 PM 52.1°F11.2°C 50.7°F10.4°C 95% Calm Calm 1.0 mph1.6 kmh 29.84 in1010.5 mb 0.00 in0.0 mm 0.00 in0.0 mm 0.02 in0.5 mm
09:25 PM 51.9°F11.1°C 50.5°F10.3°C 95% Calm Calm -- 29.84 in1010.5 mb 0.00 in0.0 mm 0.00 in0.0 mm 0.02 in0.5 mm
09:30 PM 51.9°F11.1°C 50.5°F10.3°C 95% Calm Calm -- 29.84 in1010.5 mb 0.00 in0.0 mm 0.00 in0.0 mm 0.02 in0.5 mm
09:35 PM 51.7°F10.9°C 50.2°F10.1°C 95% Calm Calm -- 29.84 in1010.5 mb 0.00 in0.0 mm 0.00 in0.0 mm 0.02 in0.5 mm
09:40 PM 51.7°F10.9°C 50.2°F10.1°C 95% Calm Calm -- 29.84 in1010.5 mb 0.00 in0.0 mm 0.00 in0.0 mm 0.02 in0.5 mm
09:45 PM 51.7°F10.9°C 50.2°F10.1°C 95% Calm Calm -- 29.84 in1010.5 mb 0.00 in0.0 mm 0.00 in0.0 mm 0.02 in0.5 mm
09:50 PM 51.6°F10.9°C 50.2°F10.1°C 95% Calm Calm -- 29.84 in1010.5 mb 0.00 in0.0 mm 0.00 in0.0 mm 0.02 in0.5 mm
09:55 PM 51.5°F10.8°C 50.0°F10.0°C 95% 1.0 mph E1.6 kmh E -- 29.84 in1010.5 mb 0.00 in0.0 mm 0.00 in0.0 mm 0.02 in0.5 mm
10:00 PM 51.5°F10.8°C 50.0°F10.0°C 95% Calm Calm -- 29.84 in1010.5 mb 0.00 in0.0 mm 0.00 in0.0 mm 0.02 in0.5 mm
10:05 PM 51.5°F10.8°C 50.0°F10.0°C 95% Calm Calm -- 29.84 in1010.5 mb 0.01 in0.3 mm 0.12 in3.0 mm 0.03 in0.8 mm
10:10 PM 51.5°F10.8°C 50.0°F10.0°C 95% Calm Calm -- 29.84 in1010.5 mb 0.01 in0.3 mm 0.00 in0.0 mm 0.03 in0.8 mm
10:15 PM 51.6°F10.9°C 50.2°F10.1°C 95% Calm Calm -- 29.84 in1010.5 mb 0.01 in0.3 mm 0.00 in0.0 mm 0.03 in0.8 mm
10:20 PM 51.6°F10.9°C 50.2°F10.1°C 95% Calm Calm -- 29.84 in1010.5 mb 0.01 in0.3 mm 0.00 in0.0 mm 0.03 in0.8 mm
10:25 PM 51.5°F10.8°C 50.0°F10.0°C 95% Calm Calm -- 29.84 in1010.5 mb 0.01 in0.3 mm 0.00 in0.0 mm 0.03 in0.8 mm
10:30 PM 51.5°F10.8°C 50.0°F10.0°C 95% Calm Calm -- 29.83 in1010.2 mb 0.01 in0.3 mm 0.00 in0.0 mm 0.03 in0.8 mm
10:35 PM 51.4°F10.8°C 50.0°F10.0°C 95% Calm Calm 1.0 mph1.6 kmh 29.83 in1010.2 mb 0.01 in0.3 mm 0.00 in0.0 mm 0.03 in0.8 mm
10:40 PM 51.4°F10.8°C 50.0°F10.0°C 95% Calm Calm -- 29.83 in1010.2 mb 0.02 in0.5 mm 0.12 in3.0 mm 0.04 in1.0 mm
10:45 PM 51.5°F10.8°C 50.0°F10.0°C 95% Calm Calm -- 29.83 in1010.2 mb 0.02 in0.5 mm 0.00 in0.0 mm 0.04 in1.0 mm
10:50 PM 51.4°F10.8°C 50.0°F10.0°C 95% Calm Calm -- 29.83 in1010.2 mb 0.02 in0.5 mm 0.00 in0.0 mm 0.04 in1.0 mm
10:55 PM 51.4°F10.8°C 50.0°F10.0°C 95% Calm Calm -- 29.83 in1010.2 mb 0.02 in0.5 mm 0.00 in0.0 mm 0.04 in1.0 mm
11:00 PM 51.4°F10.8°C 50.0°F10.0°C 95% Calm Calm -- 29.83 in1010.2 mb 0.02 in0.5 mm 0.00 in0.0 mm 0.05 in1.3 mm
11:05 PM 51.4°F10.8°C 50.0°F10.0°C 95% Calm Calm -- 29.83 in1010.2 mb 0.01 in0.3 mm 0.00 in0.0 mm 0.05 in1.3 mm
11:10 PM 51.4°F10.8°C 50.0°F10.0°C 95% Calm Calm -- 29.83 in1010.2 mb 0.01 in0.3 mm 0.00 in0.0 mm 0.05 in1.3 mm
11:15 PM 51.4°F10.8°C 50.0°F10.0°C 95% Calm Calm -- 29.83 in1010.2 mb 0.01 in0.3 mm 0.00 in0.0 mm 0.05 in1.3 mm
11:20 PM 51.4°F10.8°C 50.0°F10.0°C 95% Calm Calm -- 29.82 in1009.8 mb 0.02 in0.5 mm 0.12 in3.0 mm 0.01 in0.3 mm
11:25 PM 51.4°F10.8°C 50.0°F10.0°C 95% Calm Calm 1.0 mph1.6 kmh 29.82 in1009.8 mb 0.02 in0.5 mm 0.00 in0.0 mm 0.01 in0.3 mm
11:30 PM 51.4°F10.8°C 50.0°F10.0°C 95% Calm Calm -- 29.82 in1009.8 mb 0.02 in0.5 mm 0.00 in0.0 mm 0.01 in0.3 mm
11:35 PM 51.4°F10.8°C 50.0°F10.0°C 95% Calm Calm -- 29.82 in1009.8 mb 0.02 in0.5 mm 0.00 in0.0 mm 0.01 in0.3 mm
11:40 PM 51.3°F10.7°C 50.2°F10.1°C 96% Calm Calm -- 29.82 in1009.8 mb 0.01 in0.3 mm 0.00 in0.0 mm 0.01 in0.3 mm
11:45 PM 51.3°F10.7°C 50.2°F10.1°C 96% Calm Calm -- 29.82 in1009.8 mb 0.02 in0.5 mm 0.12 in3.0 mm 0.02 in0.5 mm
11:50 PM 51.4°F10.8°C 50.4°F10.2°C 96% Calm Calm -- 29.82 in1009.8 mb 0.02 in0.5 mm 0.00 in0.0 mm 0.02 in0.5 mm
11:55 PM 51.4°F10.8°C 50.4°F10.2°C 96% Calm Calm -- 29.82 in1009.8 mb 0.02 in0.5 mm 0.00 in0.0 mm 0.02 in0.5 mm